sensor_id;sensor_type;location;lat;lon;timestamp;P1;durP1;ratioP1;P2;durP2;ratioP2
11960;SDS011;6040;49.358;11.140;2023-12-20T00:00:19;7.20;;;5.68;;
11960;SDS011;6040;49.358;11.140;2023-12-20T00:02:46;6.10;;;5.50;;
11960;SDS011;6040;49.358;11.140;2023-12-20T00:05:13;5.75;;;5.15;;
11960;SDS011;6040;49.358;11.140;2023-12-20T00:07:40;5.20;;;4.35;;
11960;SDS011;6040;49.358;11.140;2023-12-20T00:10:07;5.60;;;5.00;;
11960;SDS011;6040;49.358;11.140;2023-12-20T00:12:35;6.82;;;5.78;;
11960;SDS011;6040;49.358;11.140;2023-12-20T00:15:02;6.50;;;5.55;;
11960;SDS011;6040;49.358;11.140;2023-12-20T00:17:29;7.40;;;5.43;;
11960;SDS011;6040;49.358;11.140;2023-12-20T00:19:56;5.82;;;5.20;;
11960;SDS011;6040;49.358;11.140;2023-12-20T00:22:23;6.50;;;5.57;;
11960;SDS011;6040;49.358;11.140;2023-12-20T00:24:50;6.80;;;5.80;;
11960;SDS011;6040;49.358;11.140;2023-12-20T00:27:16;6.25;;;5.63;;
11960;SDS011;6040;49.358;11.140;2023-12-20T00:29:45;6.82;;;5.68;;
11960;SDS011;6040;49.358;11.140;2023-12-20T00:32:14;7.45;;;5.93;;
11960;SDS011;6040;49.358;11.140;2023-12-20T00:34:41;6.43;;;5.80;;
11960;SDS011;6040;49.358;11.140;2023-12-20T00:37:09;6.97;;;6.10;;
11960;SDS011;6040;49.358;11.140;2023-12-20T00:39:35;7.07;;;6.20;;
11960;SDS011;6040;49.358;11.140;2023-12-20T00:42:02;7.82;;;6.60;;
11960;SDS011;6040;49.358;11.140;2023-12-20T00:44:29;7.10;;;6.40;;
11960;SDS011;6040;49.358;11.140;2023-12-20T00:46:58;8.43;;;6.80;;
11960;SDS011;6040;49.358;11.140;2023-12-20T00:49:24;9.10;;;7.18;;
11960;SDS011;6040;49.358;11.140;2023-12-20T00:51:51;8.10;;;6.90;;
11960;SDS011;6040;49.358;11.140;2023-12-20T00:54:18;7.65;;;6.85;;
11960;SDS011;6040;49.358;11.140;2023-12-20T00:56:45;8.50;;;7.10;;
11960;SDS011;6040;49.358;11.140;2023-12-20T00:59:12;8.52;;;6.80;;
11960;SDS011;6040;49.358;11.140;2023-12-20T01:01:39;7.65;;;6.88;;
11960;SDS011;6040;49.358;11.140;2023-12-20T01:04:08;9.50;;;7.00;;
11960;SDS011;6040;49.358;11.140;2023-12-20T01:06:35;7.85;;;6.90;;
11960;SDS011;6040;49.358;11.140;2023-12-20T01:09:02;9.02;;;7.78;;
11960;SDS011;6040;49.358;11.140;2023-12-20T01:11:29;9.97;;;8.10;;
11960;SDS011;6040;49.358;11.140;2023-12-20T01:13:56;9.23;;;7.68;;
11960;SDS011;6040;49.358;11.140;2023-12-20T01:16:22;9.70;;;7.90;;
11960;SDS011;6040;49.358;11.140;2023-12-20T01:18:49;9.27;;;8.23;;
11960;SDS011;6040;49.358;11.140;2023-12-20T01:21:17;8.43;;;7.50;;
11960;SDS011;6040;49.358;11.140;2023-12-20T01:23:44;8.02;;;7.22;;
11960;SDS011;6040;49.358;11.140;2023-12-20T01:26:11;12.00;;;8.20;;
11960;SDS011;6040;49.358;11.140;2023-12-20T01:28:38;9.07;;;8.02;;
11960;SDS011;6040;49.358;11.140;2023-12-20T01:31:05;9.35;;;7.78;;
11960;SDS011;6040;49.358;11.140;2023-12-20T01:33:31;9.35;;;7.88;;
11960;SDS011;6040;49.358;11.140;2023-12-20T01:35:58;9.32;;;8.32;;
11960;SDS011;6040;49.358;11.140;2023-12-20T01:38:26;9.18;;;7.82;;
11960;SDS011;6040;49.358;11.140;2023-12-20T01:40:53;9.43;;;7.97;;
11960;SDS011;6040;49.358;11.140;2023-12-20T01:43:20;10.80;;;8.10;;
11960;SDS011;6040;49.358;11.140;2023-12-20T01:45:47;9.95;;;7.65;;
11960;SDS011;6040;49.358;11.140;2023-12-20T01:48:14;9.20;;;7.67;;
11960;SDS011;6040;49.358;11.140;2023-12-20T01:50:44;8.30;;;7.45;;
11960;SDS011;6040;49.358;11.140;2023-12-20T01:53:12;8.55;;;7.43;;
11960;SDS011;6040;49.358;11.140;2023-12-20T01:55:41;8.90;;;8.00;;
11960;SDS011;6040;49.358;11.140;2023-12-20T01:58:08;7.80;;;7.00;;
11960;SDS011;6040;49.358;11.140;2023-12-20T02:00:36;8.20;;;7.40;;
11960;SDS011;6040;49.358;11.140;2023-12-20T02:03:03;8.88;;;7.35;;
11960;SDS011;6040;49.358;11.140;2023-12-20T02:05:31;7.63;;;6.83;;
11960;SDS011;6040;49.358;11.140;2023-12-20T02:07:59;7.95;;;6.97;;
11960;SDS011;6040;49.358;11.140;2023-12-20T02:10:26;7.75;;;6.85;;
11960;SDS011;6040;49.358;11.140;2023-12-20T02:12:55;6.88;;;5.53;;
11960;SDS011;6040;49.358;11.140;2023-12-20T02:15:22;6.22;;;5.50;;
11960;SDS011;6040;49.358;11.140;2023-12-20T02:17:49;4.30;;;3.88;;
11960;SDS011;6040;49.358;11.140;2023-12-20T02:20:16;3.90;;;3.35;;
11960;SDS011;6040;49.358;11.140;2023-12-20T02:22:44;3.05;;;2.75;;
11960;SDS011;6040;49.358;11.140;2023-12-20T02:25:11;2.63;;;2.20;;
11960;SDS011;6040;49.358;11.140;2023-12-20T02:27:38;2.28;;;2.08;;
11960;SDS011;6040;49.358;11.140;2023-12-20T02:30:06;1.80;;;1.70;;
11960;SDS011;6040;49.358;11.140;2023-12-20T02:32:33;2.33;;;1.70;;
11960;SDS011;6040;49.358;11.140;2023-12-20T02:35:00;1.92;;;1.80;;
11960;SDS011;6040;49.358;11.140;2023-12-20T02:37:26;1.85;;;1.70;;
11960;SDS011;6040;49.358;11.140;2023-12-20T02:39:55;1.77;;;1.50;;
11960;SDS011;6040;49.358;11.140;2023-12-20T02:42:21;1.70;;;1.60;;
11960;SDS011;6040;49.358;11.140;2023-12-20T02:44:48;1.50;;;1.40;;
11960;SDS011;6040;49.358;11.140;2023-12-20T02:47:15;1.40;;;1.30;;
11960;SDS011;6040;49.358;11.140;2023-12-20T02:49:42;1.20;;;1.10;;
11960;SDS011;6040;49.358;11.140;2023-12-20T02:52:09;1.75;;;1.30;;
11960;SDS011;6040;49.358;11.140;2023-12-20T02:54:35;1.35;;;1.25;;
11960;SDS011;6040;49.358;11.140;2023-12-20T02:57:04;1.23;;;1.20;;
11960;SDS011;6040;49.358;11.140;2023-12-20T02:59:30;1.40;;;1.30;;
11960;SDS011;6040;49.358;11.140;2023-12-20T03:01:57;1.20;;;1.10;;
11960;SDS011;6040;49.358;11.140;2023-12-20T03:04:24;1.25;;;1.15;;
11960;SDS011;6040;49.358;11.140;2023-12-20T03:06:51;1.00;;;1.00;;
11960;SDS011;6040;49.358;11.140;2023-12-20T03:09:18;1.20;;;0.90;;
11960;SDS011;6040;49.358;11.140;2023-12-20T03:11:44;1.20;;;0.87;;
11960;SDS011;6040;49.358;11.140;2023-12-20T03:14:12;0.70;;;0.70;;
11960;SDS011;6040;49.358;11.140;2023-12-20T03:16:39;0.70;;;0.70;;
11960;SDS011;6040;49.358;11.140;2023-12-20T03:19:06;0.90;;;0.90;;
11960;SDS011;6040;49.358;11.140;2023-12-20T03:21:33;0.80;;;0.80;;
11960;SDS011;6040;49.358;11.140;2023-12-20T03:24:00;0.70;;;0.70;;
11960;SDS011;6040;49.358;11.140;2023-12-20T03:26:27;0.70;;;0.70;;
11960;SDS011;6040;49.358;11.140;2023-12-20T03:28:53;0.73;;;0.73;;
11960;SDS011;6040;49.358;11.140;2023-12-20T03:31:21;0.75;;;0.75;;
11960;SDS011;6040;49.358;11.140;2023-12-20T03:33:48;0.75;;;0.75;;
11960;SDS011;6040;49.358;11.140;2023-12-20T03:36:16;0.60;;;0.60;;
11960;SDS011;6040;49.358;11.140;2023-12-20T03:38:42;0.83;;;0.83;;
11960;SDS011;6040;49.358;11.140;2023-12-20T03:41:09;0.80;;;0.80;;
11960;SDS011;6040;49.358;11.140;2023-12-20T03:43:36;0.82;;;0.82;;
11960;SDS011;6040;49.358;11.140;2023-12-20T03:46:03;2.05;;;0.80;;
11960;SDS011;6040;49.358;11.140;2023-12-20T03:48:31;0.90;;;0.90;;
11960;SDS011;6040;49.358;11.140;2023-12-20T03:50:58;0.90;;;0.90;;
11960;SDS011;6040;49.358;11.140;2023-12-20T03:53:25;0.90;;;0.90;;
11960;SDS011;6040;49.358;11.140;2023-12-20T03:55:51;0.80;;;0.80;;
11960;SDS011;6040;49.358;11.140;2023-12-20T03:58:18;0.90;;;0.85;;
11960;SDS011;6040;49.358;11.140;2023-12-20T04:00:45;0.80;;;0.80;;
11960;SDS011;6040;49.358;11.140;2023-12-20T04:03:12;0.80;;;0.80;;
11960;SDS011;6040;49.358;11.140;2023-12-20T04:05:40;1.13;;;1.00;;
11960;SDS011;6040;49.358;11.140;2023-12-20T04:08:07;1.10;;;1.00;;
11960;SDS011;6040;49.358;11.140;2023-12-20T04:10:35;0.95;;;0.95;;
11960;SDS011;6040;49.358;11.140;2023-12-20T04:13:02;0.90;;;0.90;;
11960;SDS011;6040;49.358;11.140;2023-12-20T04:15:29;0.90;;;0.90;;
11960;SDS011;6040;49.358;11.140;2023-12-20T04:17:56;1.10;;;1.10;;
11960;SDS011;6040;49.358;11.140;2023-12-20T04:20:23;1.00;;;1.00;;
11960;SDS011;6040;49.358;11.140;2023-12-20T04:22:51;1.30;;;1.08;;
11960;SDS011;6040;49.358;11.140;2023-12-20T04:25:18;1.10;;;1.10;;
11960;SDS011;6040;49.358;11.140;2023-12-20T04:27:45;1.13;;;1.10;;
11960;SDS011;6040;49.358;11.140;2023-12-20T04:30:12;1.10;;;1.10;;
11960;SDS011;6040;49.358;11.140;2023-12-20T04:32:39;1.10;;;1.10;;
11960;SDS011;6040;49.358;11.140;2023-12-20T04:35:06;1.60;;;1.20;;
11960;SDS011;6040;49.358;11.140;2023-12-20T04:37:33;1.38;;;1.27;;
11960;SDS011;6040;49.358;11.140;2023-12-20T04:40:01;1.13;;;1.10;;
11960;SDS011;6040;49.358;11.140;2023-12-20T04:42:30;1.20;;;1.20;;
11960;SDS011;6040;49.358;11.140;2023-12-20T04:44:57;1.13;;;1.13;;
11960;SDS011;6040;49.358;11.140;2023-12-20T04:47:24;1.40;;;1.30;;
11960;SDS011;6040;49.358;11.140;2023-12-20T04:49:50;1.40;;;1.30;;
11960;SDS011;6040;49.358;11.140;2023-12-20T04:52:17;1.52;;;1.40;;
11960;SDS011;6040;49.358;11.140;2023-12-20T04:54:45;1.40;;;1.30;;
11960;SDS011;6040;49.358;11.140;2023-12-20T04:57:13;1.50;;;1.40;;
11960;SDS011;6040;49.358;11.140;2023-12-20T04:59:40;1.50;;;1.40;;
11960;SDS011;6040;49.358;11.140;2023-12-20T05:02:07;1.70;;;1.60;;
11960;SDS011;6040;49.358;11.140;2023-12-20T05:04:34;1.55;;;1.45;;
11960;SDS011;6040;49.358;11.140;2023-12-20T05:07:01;1.60;;;1.50;;
11960;SDS011;6040;49.358;11.140;2023-12-20T05:09:29;1.50;;;1.40;;
11960;SDS011;6040;49.358;11.140;2023-12-20T05:11:56;1.70;;;1.60;;
11960;SDS011;6040;49.358;11.140;2023-12-20T05:14:24;1.50;;;1.40;;
11960;SDS011;6040;49.358;11.140;2023-12-20T05:16:51;1.60;;;1.50;;
11960;SDS011;6040;49.358;11.140;2023-12-20T05:19:18;1.70;;;1.60;;
11960;SDS011;6040;49.358;11.140;2023-12-20T05:21:45;1.70;;;1.60;;
11960;SDS011;6040;49.358;11.140;2023-12-20T05:24:12;1.60;;;1.50;;
11960;SDS011;6040;49.358;11.140;2023-12-20T05:26:38;1.70;;;1.60;;
11960;SDS011;6040;49.358;11.140;2023-12-20T05:29:05;4.80;;;1.80;;
11960;SDS011;6040;49.358;11.140;2023-12-20T05:31:33;1.80;;;1.65;;
11960;SDS011;6040;49.358;11.140;2023-12-20T05:34:00;1.70;;;1.55;;
11960;SDS011;6040;49.358;11.140;2023-12-20T05:36:27;1.45;;;1.35;;
11960;SDS011;6040;49.358;11.140;2023-12-20T05:38:54;1.45;;;1.35;;
11960;SDS011;6040;49.358;11.140;2023-12-20T05:41:20;1.50;;;1.40;;
11960;SDS011;6040;49.358;11.140;2023-12-20T05:43:48;1.40;;;1.30;;
11960;SDS011;6040;49.358;11.140;2023-12-20T05:46:14;1.35;;;1.25;;
11960;SDS011;6040;49.358;11.140;2023-12-20T05:48:42;1.50;;;1.40;;
11960;SDS011;6040;49.358;11.140;2023-12-20T05:51:11;1.67;;;1.58;;
11960;SDS011;6040;49.358;11.140;2023-12-20T05:53:37;1.83;;;1.70;;
11960;SDS011;6040;49.358;11.140;2023-12-20T05:56:05;1.75;;;1.60;;
11960;SDS011;6040;49.358;11.140;2023-12-20T05:58:32;1.83;;;1.70;;
11960;SDS011;6040;49.358;11.140;2023-12-20T06:00:59;1.60;;;1.48;;
11960;SDS011;6040;49.358;11.140;2023-12-20T06:03:26;1.67;;;1.50;;
11960;SDS011;6040;49.358;11.140;2023-12-20T06:05:54;1.50;;;1.40;;
11960;SDS011;6040;49.358;11.140;2023-12-20T06:08:21;1.20;;;1.20;;
11960;SDS011;6040;49.358;11.140;2023-12-20T06:10:48;1.48;;;1.38;;
11960;SDS011;6040;49.358;11.140;2023-12-20T06:13:15;1.50;;;1.40;;
11960;SDS011;6040;49.358;11.140;2023-12-20T06:15:41;2.25;;;1.30;;
11960;SDS011;6040;49.358;11.140;2023-12-20T06:18:08;1.10;;;1.10;;
11960;SDS011;6040;49.358;11.140;2023-12-20T06:20:35;1.33;;;1.23;;
11960;SDS011;6040;49.358;11.140;2023-12-20T06:23:03;1.50;;;1.40;;
11960;SDS011;6040;49.358;11.140;2023-12-20T06:25:30;1.55;;;1.40;;
11960;SDS011;6040;49.358;11.140;2023-12-20T06:27:57;1.63;;;1.52;;
11960;SDS011;6040;49.358;11.140;2023-12-20T06:30:23;1.73;;;1.63;;
11960;SDS011;6040;49.358;11.140;2023-12-20T06:32:52;1.90;;;1.70;;
11960;SDS011;6040;49.358;11.140;2023-12-20T06:35:19;1.60;;;1.50;;
11960;SDS011;6040;49.358;11.140;2023-12-20T06:37:46;1.60;;;1.50;;
11960;SDS011;6040;49.358;11.140;2023-12-20T06:40:14;1.80;;;1.70;;
11960;SDS011;6040;49.358;11.140;2023-12-20T06:42:42;1.70;;;1.60;;
11960;SDS011;6040;49.358;11.140;2023-12-20T06:45:09;1.90;;;1.70;;
11960;SDS011;6040;49.358;11.140;2023-12-20T06:47:36;1.90;;;1.80;;
11960;SDS011;6040;49.358;11.140;2023-12-20T06:50:04;1.92;;;1.83;;
11960;SDS011;6040;49.358;11.140;2023-12-20T06:52:33;2.15;;;2.00;;
11960;SDS011;6040;49.358;11.140;2023-12-20T06:55:00;2.30;;;2.10;;
11960;SDS011;6040;49.358;11.140;2023-12-20T06:57:28;2.60;;;2.40;;
11960;SDS011;6040;49.358;11.140;2023-12-20T06:59:56;2.50;;;2.30;;
11960;SDS011;6040;49.358;11.140;2023-12-20T07:02:23;2.70;;;2.50;;
11960;SDS011;6040;49.358;11.140;2023-12-20T07:04:49;2.50;;;2.30;;
11960;SDS011;6040;49.358;11.140;2023-12-20T07:07:16;2.50;;;2.30;;
11960;SDS011;6040;49.358;11.140;2023-12-20T07:09:43;2.80;;;2.60;;
11960;SDS011;6040;49.358;11.140;2023-12-20T07:12:10;2.90;;;2.70;;
11960;SDS011;6040;49.358;11.140;2023-12-20T07:14:38;3.13;;;2.83;;
11960;SDS011;6040;49.358;11.140;2023-12-20T07:17:05;3.50;;;3.20;;
11960;SDS011;6040;49.358;11.140;2023-12-20T07:19:36;3.90;;;3.60;;
11960;SDS011;6040;49.358;11.140;2023-12-20T07:22:03;4.05;;;3.70;;
11960;SDS011;6040;49.358;11.140;2023-12-20T07:24:30;3.60;;;3.30;;
11960;SDS011;6040;49.358;11.140;2023-12-20T07:26:57;3.90;;;3.60;;
11960;SDS011;6040;49.358;11.140;2023-12-20T07:29:24;3.70;;;3.40;;
11960;SDS011;6040;49.358;11.140;2023-12-20T07:31:52;3.90;;;3.60;;
11960;SDS011;6040;49.358;11.140;2023-12-20T07:34:19;3.90;;;3.60;;
11960;SDS011;6040;49.358;11.140;2023-12-20T07:36:45;4.10;;;3.80;;
11960;SDS011;6040;49.358;11.140;2023-12-20T07:39:12;4.10;;;3.80;;
11960;SDS011;6040;49.358;11.140;2023-12-20T07:41:40;4.35;;;4.00;;
11960;SDS011;6040;49.358;11.140;2023-12-20T07:44:07;4.60;;;4.30;;
11960;SDS011;6040;49.358;11.140;2023-12-20T07:46:33;4.50;;;4.20;;
11960;SDS011;6040;49.358;11.140;2023-12-20T07:49:01;5.00;;;4.50;;
11960;SDS011;6040;49.358;11.140;2023-12-20T07:51:28;4.70;;;4.30;;
11960;SDS011;6040;49.358;11.140;2023-12-20T07:53:55;5.25;;;4.85;;
11960;SDS011;6040;49.358;11.140;2023-12-20T07:56:22;5.05;;;4.55;;
11960;SDS011;6040;49.358;11.140;2023-12-20T07:58:49;4.47;;;4.10;;
11960;SDS011;6040;49.358;11.140;2023-12-20T08:01:16;4.72;;;4.32;;
11960;SDS011;6040;49.358;11.140;2023-12-20T08:03:43;5.30;;;4.80;;
11960;SDS011;6040;49.358;11.140;2023-12-20T08:06:12;5.03;;;4.63;;
11960;SDS011;6040;49.358;11.140;2023-12-20T08:08:39;4.90;;;4.50;;
11960;SDS011;6040;49.358;11.140;2023-12-20T08:11:06;5.13;;;4.72;;
11960;SDS011;6040;49.358;11.140;2023-12-20T08:13:33;5.45;;;4.95;;
11960;SDS011;6040;49.358;11.140;2023-12-20T08:16:03;6.75;;;5.35;;
11960;SDS011;6040;49.358;11.140;2023-12-20T08:18:30;6.30;;;5.70;;
11960;SDS011;6040;49.358;11.140;2023-12-20T08:20:57;5.95;;;5.35;;
11960;SDS011;6040;49.358;11.140;2023-12-20T08:23:25;5.47;;;4.97;;
11960;SDS011;6040;49.358;11.140;2023-12-20T08:25:52;5.30;;;4.80;;
11960;SDS011;6040;49.358;11.140;2023-12-20T08:28:18;5.53;;;5.03;;
11960;SDS011;6040;49.358;11.140;2023-12-20T08:30:45;5.82;;;4.93;;
11960;SDS011;6040;49.358;11.140;2023-12-20T08:33:12;5.63;;;5.15;;
11960;SDS011;6040;49.358;11.140;2023-12-20T08:35:39;5.40;;;5.00;;
11960;SDS011;6040;49.358;11.140;2023-12-20T08:38:06;5.45;;;4.95;;
11960;SDS011;6040;49.358;11.140;2023-12-20T08:40:34;5.07;;;4.65;;
11960;SDS011;6040;49.358;11.140;2023-12-20T08:43:01;5.40;;;4.95;;
11960;SDS011;6040;49.358;11.140;2023-12-20T08:45:28;5.90;;;5.40;;
11960;SDS011;6040;49.358;11.140;2023-12-20T08:47:55;5.13;;;4.72;;
11960;SDS011;6040;49.358;11.140;2023-12-20T08:50:22;4.47;;;4.10;;
11960;SDS011;6040;49.358;11.140;2023-12-20T08:52:50;4.25;;;3.95;;
11960;SDS011;6040;49.358;11.140;2023-12-20T08:55:17;3.97;;;3.67;;
11960;SDS011;6040;49.358;11.140;2023-12-20T08:57:45;3.72;;;3.33;;
11960;SDS011;6040;49.358;11.140;2023-12-20T09:00:12;3.70;;;3.40;;
11960;SDS011;6040;49.358;11.140;2023-12-20T09:02:40;3.00;;;2.80;;
11960;SDS011;6040;49.358;11.140;2023-12-20T09:05:07;3.13;;;2.83;;
11960;SDS011;6040;49.358;11.140;2023-12-20T09:07:34;2.90;;;2.70;;
11960;SDS011;6040;49.358;11.140;2023-12-20T09:10:01;2.65;;;2.45;;
11960;SDS011;6040;49.358;11.140;2023-12-20T09:12:28;2.75;;;2.53;;
11960;SDS011;6040;49.358;11.140;2023-12-20T09:14:57;2.83;;;2.63;;
11960;SDS011;6040;49.358;11.140;2023-12-20T09:17:23;2.77;;;2.30;;
11960;SDS011;6040;49.358;11.140;2023-12-20T09:19:50;2.78;;;2.58;;
11960;SDS011;6040;49.358;11.140;2023-12-20T09:22:19;2.80;;;2.60;;
11960;SDS011;6040;49.358;11.140;2023-12-20T09:24:45;3.03;;;2.53;;
11960;SDS011;6040;49.358;11.140;2023-12-20T09:27:12;2.67;;;2.47;;
11960;SDS011;6040;49.358;11.140;2023-12-20T09:29:39;2.22;;;2.00;;
11960;SDS011;6040;49.358;11.140;2023-12-20T09:32:07;2.40;;;2.07;;
11960;SDS011;6040;49.358;11.140;2023-12-20T09:34:34;2.28;;;1.90;;
11960;SDS011;6040;49.358;11.140;2023-12-20T09:37:02;2.93;;;2.00;;
11960;SDS011;6040;49.358;11.140;2023-12-20T09:39:30;2.05;;;1.60;;
11960;SDS011;6040;49.358;11.140;2023-12-20T09:42:00;4.57;;;1.60;;
11960;SDS011;6040;49.358;11.140;2023-12-20T09:44:27;2.30;;;1.70;;
11960;SDS011;6040;49.358;11.140;2023-12-20T09:46:54;1.92;;;1.42;;
11960;SDS011;6040;49.358;11.140;2023-12-20T09:49:23;1.90;;;1.37;;
11960;SDS011;6040;49.358;11.140;2023-12-20T09:51:53;2.40;;;1.33;;
11960;SDS011;6040;49.358;11.140;2023-12-20T09:54:21;2.33;;;1.40;;
11960;SDS011;6040;49.358;11.140;2023-12-20T09:56:49;2.00;;;1.40;;
11960;SDS011;6040;49.358;11.140;2023-12-20T09:59:16;2.03;;;1.40;;
11960;SDS011;6040;49.358;11.140;2023-12-20T10:01:43;2.38;;;1.50;;
11960;SDS011;6040;49.358;11.140;2023-12-20T10:04:10;2.83;;;1.55;;
11960;SDS011;6040;49.358;11.140;2023-12-20T10:06:41;4.88;;;1.65;;
11960;SDS011;6040;49.358;11.140;2023-12-20T10:09:08;2.95;;;1.50;;
11960;SDS011;6040;49.358;11.140;2023-12-20T10:11:35;3.35;;;1.60;;
11960;SDS011;6040;49.358;11.140;2023-12-20T10:14:03;2.65;;;1.50;;
11960;SDS011;6040;49.358;11.140;2023-12-20T10:16:31;3.40;;;1.50;;
11960;SDS011;6040;49.358;11.140;2023-12-20T10:18:59;2.88;;;1.52;;
11960;SDS011;6040;49.358;11.140;2023-12-20T10:21:27;3.37;;;1.60;;
11960;SDS011;6040;49.358;11.140;2023-12-20T10:23:56;3.28;;;1.73;;
11960;SDS011;6040;49.358;11.140;2023-12-20T10:26:24;3.85;;;1.55;;
11960;SDS011;6040;49.358;11.140;2023-12-20T10:28:53;2.90;;;1.40;;
11960;SDS011;6040;49.358;11.140;2023-12-20T10:31:27;3.75;;;1.70;;
11960;SDS011;6040;49.358;11.140;2023-12-20T10:33:56;4.25;;;1.70;;
11960;SDS011;6040;49.358;11.140;2023-12-20T10:36:24;3.80;;;1.73;;
11960;SDS011;6040;49.358;11.140;2023-12-20T10:38:53;3.92;;;1.88;;
11960;SDS011;6040;49.358;11.140;2023-12-20T10:41:24;5.25;;;1.85;;
11960;SDS011;6040;49.358;11.140;2023-12-20T10:43:55;5.45;;;1.95;;
11960;SDS011;6040;49.358;11.140;2023-12-20T10:46:24;3.85;;;1.77;;
11960;SDS011;6040;49.358;11.140;2023-12-20T10:48:53;5.55;;;1.88;;
11960;SDS011;6040;49.358;11.140;2023-12-20T10:51:21;4.93;;;1.63;;
11960;SDS011;6040;49.358;11.140;2023-12-20T10:53:49;4.30;;;1.70;;
11960;SDS011;6040;49.358;11.140;2023-12-20T10:56:18;4.10;;;1.70;;
11960;SDS011;6040;49.358;11.140;2023-12-20T10:58:46;6.20;;;1.80;;
11960;SDS011;6040;49.358;11.140;2023-12-20T11:01:15;5.93;;;1.70;;
11960;SDS011;6040;49.358;11.140;2023-12-20T11:03:43;4.17;;;1.90;;
11960;SDS011;6040;49.358;11.140;2023-12-20T11:06:19;3.47;;;1.70;;
11960;SDS011;6040;49.358;11.140;2023-12-20T11:08:58;3.55;;;1.60;;
11960;SDS011;6040;49.358;11.140;2023-12-20T11:11:37;3.85;;;1.60;;
11960;SDS011;6040;49.358;11.140;2023-12-20T11:14:14;4.33;;;1.80;;
11960;SDS011;6040;49.358;11.140;2023-12-20T11:16:45;3.60;;;1.52;;
11960;SDS011;6040;49.358;11.140;2023-12-20T11:19:12;4.03;;;1.52;;
11960;SDS011;6040;49.358;11.140;2023-12-20T11:21:40;4.20;;;1.80;;
11960;SDS011;6040;49.358;11.140;2023-12-20T11:24:07;5.45;;;1.83;;
11960;SDS011;6040;49.358;11.140;2023-12-20T11:26:36;5.78;;;1.80;;
11960;SDS011;6040;49.358;11.140;2023-12-20T11:29:28;2.87;;;1.50;;
11960;SDS011;6040;49.358;11.140;2023-12-20T11:31:56;3.83;;;1.83;;
11960;SDS011;6040;49.358;11.140;2023-12-20T11:34:23;3.75;;;1.80;;
11960;SDS011;6040;49.358;11.140;2023-12-20T11:36:56;3.10;;;1.52;;
11960;SDS011;6040;49.358;11.140;2023-12-20T11:39:24;4.20;;;1.70;;
11960;SDS011;6040;49.358;11.140;2023-12-20T11:41:55;5.22;;;1.90;;
11960;SDS011;6040;49.358;11.140;2023-12-20T11:44:24;5.47;;;1.90;;
11960;SDS011;6040;49.358;11.140;2023-12-20T11:46:52;3.17;;;1.65;;
11960;SDS011;6040;49.358;11.140;2023-12-20T11:49:22;4.07;;;1.80;;
11960;SDS011;6040;49.358;11.140;2023-12-20T11:51:50;3.65;;;1.80;;
11960;SDS011;6040;49.358;11.140;2023-12-20T11:54:17;4.40;;;1.70;;
11960;SDS011;6040;49.358;11.140;2023-12-20T11:56:44;3.45;;;1.85;;
11960;SDS011;6040;49.358;11.140;2023-12-20T11:59:12;5.30;;;1.73;;
11960;SDS011;6040;49.358;11.140;2023-12-20T12:01:40;5.38;;;2.10;;
11960;SDS011;6040;49.358;11.140;2023-12-20T12:04:13;4.25;;;1.85;;
11960;SDS011;6040;49.358;11.140;2023-12-20T12:06:40;4.88;;;1.90;;
11960;SDS011;6040;49.358;11.140;2023-12-20T12:09:07;4.88;;;2.00;;
11960;SDS011;6040;49.358;11.140;2023-12-20T12:11:35;7.78;;;2.30;;
11960;SDS011;6040;49.358;11.140;2023-12-20T12:14:02;4.07;;;2.10;;
11960;SDS011;6040;49.358;11.140;2023-12-20T12:16:30;4.80;;;2.03;;
11960;SDS011;6040;49.358;11.140;2023-12-20T12:18:58;5.95;;;2.10;;
11960;SDS011;6040;49.358;11.140;2023-12-20T12:21:25;6.03;;;1.80;;
11960;SDS011;6040;49.358;11.140;2023-12-20T12:23:52;6.85;;;2.10;;
11960;SDS011;6040;49.358;11.140;2023-12-20T12:26:19;4.82;;;2.13;;
11960;SDS011;6040;49.358;11.140;2023-12-20T12:28:46;5.20;;;1.90;;
11960;SDS011;6040;49.358;11.140;2023-12-20T12:31:13;6.38;;;2.30;;
11960;SDS011;6040;49.358;11.140;2023-12-20T12:33:42;5.20;;;2.15;;
11960;SDS011;6040;49.358;11.140;2023-12-20T12:36:09;5.43;;;2.10;;
11960;SDS011;6040;49.358;11.140;2023-12-20T12:38:37;3.92;;;2.00;;
11960;SDS011;6040;49.358;11.140;2023-12-20T12:41:04;6.10;;;2.20;;
11960;SDS011;6040;49.358;11.140;2023-12-20T12:43:32;3.58;;;2.10;;
11960;SDS011;6040;49.358;11.140;2023-12-20T12:45:59;5.88;;;2.10;;
11960;SDS011;6040;49.358;11.140;2023-12-20T12:48:26;5.53;;;2.13;;
11960;SDS011;6040;49.358;11.140;2023-12-20T12:50:54;4.57;;;2.05;;
11960;SDS011;6040;49.358;11.140;2023-12-20T12:53:24;5.72;;;1.90;;
11960;SDS011;6040;49.358;11.140;2023-12-20T12:55:51;6.07;;;1.88;;
11960;SDS011;6040;49.358;11.140;2023-12-20T12:58:19;4.77;;;2.00;;
11960;SDS011;6040;49.358;11.140;2023-12-20T13:00:46;4.13;;;1.90;;
11960;SDS011;6040;49.358;11.140;2023-12-20T13:03:12;3.72;;;1.85;;
11960;SDS011;6040;49.358;11.140;2023-12-20T13:05:39;5.03;;;2.17;;
11960;SDS011;6040;49.358;11.140;2023-12-20T13:08:08;3.55;;;1.77;;
11960;SDS011;6040;49.358;11.140;2023-12-20T13:10:37;3.03;;;1.80;;
11960;SDS011;6040;49.358;11.140;2023-12-20T13:13:04;4.38;;;2.08;;
11960;SDS011;6040;49.358;11.140;2023-12-20T13:15:31;6.77;;;2.03;;
11960;SDS011;6040;49.358;11.140;2023-12-20T13:17:57;3.10;;;1.90;;
11960;SDS011;6040;49.358;11.140;2023-12-20T13:20:25;5.05;;;2.03;;
11960;SDS011;6040;49.358;11.140;2023-12-20T13:22:51;4.70;;;1.92;;
11960;SDS011;6040;49.358;11.140;2023-12-20T13:25:20;3.88;;;2.00;;
11960;SDS011;6040;49.358;11.140;2023-12-20T13:27:46;5.10;;;2.10;;
11960;SDS011;6040;49.358;11.140;2023-12-20T13:30:13;4.43;;;1.90;;
11960;SDS011;6040;49.358;11.140;2023-12-20T13:32:41;4.40;;;2.08;;
11960;SDS011;6040;49.358;11.140;2023-12-20T13:35:07;4.60;;;2.08;;
11960;SDS011;6040;49.358;11.140;2023-12-20T13:37:35;3.83;;;1.70;;
11960;SDS011;6040;49.358;11.140;2023-12-20T13:40:02;5.55;;;2.00;;
11960;SDS011;6040;49.358;11.140;2023-12-20T13:42:31;4.70;;;2.08;;
11960;SDS011;6040;49.358;11.140;2023-12-20T13:44:57;5.00;;;2.13;;
11960;SDS011;6040;49.358;11.140;2023-12-20T13:47:24;6.28;;;2.15;;
11960;SDS011;6040;49.358;11.140;2023-12-20T13:49:51;4.95;;;2.20;;
11960;SDS011;6040;49.358;11.140;2023-12-20T13:52:18;4.68;;;2.08;;
11960;SDS011;6040;49.358;11.140;2023-12-20T13:54:45;4.50;;;2.10;;
11960;SDS011;6040;49.358;11.140;2023-12-20T13:57:12;7.47;;;2.35;;
11960;SDS011;6040;49.358;11.140;2023-12-20T13:59:40;4.80;;;2.00;;
11960;SDS011;6040;49.358;11.140;2023-12-20T14:02:07;5.30;;;2.17;;
11960;SDS011;6040;49.358;11.140;2023-12-20T14:04:34;4.23;;;1.83;;
11960;SDS011;6040;49.358;11.140;2023-12-20T14:07:00;4.85;;;2.08;;
11960;SDS011;6040;49.358;11.140;2023-12-20T14:09:27;5.40;;;2.00;;
11960;SDS011;6040;49.358;11.140;2023-12-20T14:11:54;5.00;;;2.00;;
11960;SDS011;6040;49.358;11.140;2023-12-20T14:14:21;4.45;;;1.88;;
11960;SDS011;6040;49.358;11.140;2023-12-20T14:16:49;5.40;;;2.20;;
11960;SDS011;6040;49.358;11.140;2023-12-20T14:19:16;4.28;;;2.15;;
11960;SDS011;6040;49.358;11.140;2023-12-20T14:21:43;5.75;;;2.35;;
11960;SDS011;6040;49.358;11.140;2023-12-20T14:24:10;5.85;;;2.25;;
11960;SDS011;6040;49.358;11.140;2023-12-20T14:26:39;7.40;;;2.67;;
11960;SDS011;6040;49.358;11.140;2023-12-20T14:29:06;5.63;;;2.70;;
11960;SDS011;6040;49.358;11.140;2023-12-20T14:31:34;8.88;;;3.40;;
11960;SDS011;6040;49.358;11.140;2023-12-20T14:34:03;6.70;;;2.70;;
11960;SDS011;6040;49.358;11.140;2023-12-20T14:36:30;5.75;;;2.60;;
11960;SDS011;6040;49.358;11.140;2023-12-20T14:38:57;4.82;;;2.25;;
11960;SDS011;6040;49.358;11.140;2023-12-20T14:41:24;6.30;;;2.17;;
11960;SDS011;6040;49.358;11.140;2023-12-20T14:43:51;4.75;;;2.03;;
11960;SDS011;6040;49.358;11.140;2023-12-20T14:46:18;3.75;;;1.90;;
11960;SDS011;6040;49.358;11.140;2023-12-20T14:48:45;3.58;;;1.95;;